createdAt,value
2019-05-17T00:00:47.492Z,10.00
2019-05-17T00:03:18.575Z,10.00
2019-05-17T00:05:48.015Z,10.00
2019-05-17T00:08:29.828Z,10.00
2019-05-17T00:10:48.333Z,10.00
2019-05-17T00:13:17.859Z,10.20
2019-05-17T00:15:47.507Z,10.20
2019-05-17T00:18:17.371Z,10.30
2019-05-17T00:20:46.892Z,10.20
2019-05-17T00:23:17.381Z,10.20
2019-05-17T00:25:47.105Z,10.20
2019-05-17T00:28:16.559Z,10.20
2019-05-17T00:30:46.563Z,10.30
2019-05-17T00:33:16.955Z,10.30
2019-05-17T00:35:46.907Z,10.20
2019-05-17T00:38:17.484Z,10.10
2019-05-17T00:40:47.155Z,10.00
2019-05-17T00:43:17.018Z,10.10
2019-05-17T00:45:46.865Z,10.10
2019-05-17T00:48:17.232Z,10.00
2019-05-17T00:50:53.343Z,10.00
2019-05-17T00:53:17.731Z,9.90
2019-05-17T00:55:47.051Z,9.90
2019-05-17T00:58:17.190Z,10.00
2019-05-17T01:00:47.861Z,10.00
2019-05-17T01:03:17.412Z,9.90
2019-05-17T01:05:47.320Z,10.00
2019-05-17T01:08:17.430Z,10.00
2019-05-17T01:10:47.370Z,10.00
2019-05-17T01:13:17.280Z,10.00
2019-05-17T01:15:47.418Z,10.10
2019-05-17T01:18:23.480Z,8.10
2019-05-17T01:20:53.040Z,10.20
2019-05-17T01:23:22.355Z,10.20
2019-05-17T01:25:51.733Z,10.20
2019-05-17T01:28:21.043Z,10.20
2019-05-17T01:30:50.366Z,10.20
2019-05-17T01:33:19.671Z,10.10
2019-05-17T01:35:48.993Z,10.20
2019-05-17T01:38:18.291Z,10.30
2019-05-17T01:40:47.608Z,10.30
2019-05-17T01:43:16.914Z,10.30
2019-05-17T01:45:48.045Z,10.30
2019-05-17T01:48:17.476Z,10.20
2019-05-17T01:50:46.795Z,10.20
2019-05-17T01:53:16.636Z,10.20
2019-05-17T01:55:47.175Z,10.30
2019-05-17T01:58:16.572Z,10.30
2019-05-17T02:00:46.530Z,10.30
2019-05-17T02:03:17.316Z,10.20
2019-05-17T02:05:47.399Z,10.30
2019-05-17T02:08:17.133Z,10.30
2019-05-17T02:10:46.703Z,10.30
2019-05-17T02:13:16.553Z,10.30
2019-05-17T02:15:47.112Z,10.20
2019-05-17T02:18:17.327Z,10.30
2019-05-17T02:20:46.980Z,10.10
2019-05-17T02:23:17.407Z,10.20
2019-05-17T02:25:47.951Z,10.20
2019-05-17T02:28:17.264Z,10.30
2019-05-17T02:30:46.826Z,10.30
2019-05-17T02:33:16.417Z,10.10
2019-05-17T02:35:46.703Z,10.10
2019-05-17T02:38:16.092Z,10.00
2019-05-17T02:40:45.414Z,10.10
2019-05-17T02:43:14.733Z,10.10
2019-05-17T02:45:44.256Z,10.10
2019-05-17T02:48:13.637Z,10.00
2019-05-17T02:50:47.367Z,10.10
2019-05-17T02:53:15.031Z,10.10
2019-05-17T02:55:44.355Z,10.00
2019-05-17T02:58:13.653Z,10.00
2019-05-17T03:00:44.200Z,10.00
2019-05-17T03:03:13.833Z,10.60
2019-05-17T03:05:43.347Z,9.90
2019-05-17T03:08:12.729Z,10.10
2019-05-17T03:10:43.310Z,10.00
2019-05-17T03:13:17.058Z,10.00
2019-05-17T03:15:43.883Z,10.00
2019-05-17T03:18:14.156Z,10.00
2019-05-17T03:20:43.481Z,10.10
2019-05-17T03:23:13.664Z,10.10
2019-05-17T03:25:44.005Z,10.00
2019-05-17T03:28:13.668Z,10.10
2019-05-17T03:30:46.914Z,10.10
2019-05-17T03:33:16.625Z,10.10
2019-05-17T03:35:46.970Z,10.10
2019-05-17T03:38:16.282Z,10.00
2019-05-17T03:41:07.893Z,10.00
2019-05-17T03:43:16.744Z,10.10
2019-05-17T03:45:46.210Z,10.00
2019-05-17T03:48:15.527Z,10.00
2019-05-17T03:50:44.838Z,10.10
2019-05-17T03:53:14.217Z,10.20
2019-05-17T03:55:43.625Z,10.20
2019-05-17T03:58:13.047Z,10.20
2019-05-17T04:00:42.972Z,10.10
2019-05-17T04:03:13.544Z,10.20
2019-05-17T04:05:43.206Z,10.20
2019-05-17T04:08:13.912Z,10.30
2019-05-17T04:10:43.555Z,10.30
2019-05-17T04:13:13.134Z,10.30
2019-05-17T04:15:43.341Z,10.30
2019-05-17T04:18:13.265Z,10.40
2019-05-17T04:20:43.521Z,10.30
2019-05-17T04:23:19.239Z,10.30
2019-05-17T04:25:52.984Z,10.40
2019-05-17T04:28:22.982Z,10.40
2019-05-17T04:30:52.911Z,10.30
2019-05-17T04:33:23.314Z,10.40
2019-05-17T04:35:54.096Z,10.30
2019-05-17T04:38:24.083Z,10.40
2019-05-17T04:40:54.034Z,10.30
2019-05-17T04:43:23.509Z,10.30
2019-05-17T04:45:53.650Z,10.30
2019-05-17T04:48:23.567Z,10.20
2019-05-17T04:50:53.637Z,10.20
2019-05-17T04:53:23.601Z,10.30
2019-05-17T04:55:54.066Z,10.40
2019-05-17T04:58:23.648Z,10.50
2019-05-17T05:00:53.737Z,10.40
2019-05-17T05:03:23.466Z,10.50
2019-05-17T05:05:55.226Z,10.60
2019-05-17T05:08:25.264Z,10.70
2019-05-17T05:10:55.456Z,10.70
2019-05-17T05:13:24.767Z,10.70
2019-05-17T05:15:54.081Z,10.80
2019-05-17T05:18:23.404Z,10.80
2019-05-17T05:20:52.858Z,10.80
2019-05-17T05:23:23.780Z,10.80
2019-05-17T05:25:53.520Z,10.80
2019-05-17T05:28:22.835Z,10.90
2019-05-17T05:30:52.739Z,10.90
2019-05-17T05:33:22.323Z,11.00
2019-05-17T05:35:51.867Z,11.10
2019-05-17T05:38:21.825Z,11.20
2019-05-17T05:40:52.227Z,11.30
2019-05-17T05:43:22.661Z,11.20
2019-05-17T05:45:53.656Z,11.20
2019-05-17T05:48:23.080Z,11.20
2019-05-17T05:50:52.390Z,11.30
2019-05-17T05:53:21.958Z,11.20
2019-05-17T05:55:51.839Z,11.30
2019-05-17T05:58:23.984Z,11.20
2019-05-17T06:00:53.173Z,11.30
2019-05-17T06:03:22.669Z,11.20
2019-05-17T06:05:52.557Z,11.20
2019-05-17T06:08:22.740Z,11.30
2019-05-17T06:10:53.068Z,11.40
2019-05-17T06:13:22.655Z,11.50
2019-05-17T06:15:51.967Z,11.50
2019-05-17T06:18:22.718Z,11.40
2019-05-17T06:20:52.488Z,11.40
2019-05-17T06:23:28.643Z,11.50
2019-05-17T06:25:57.969Z,11.40
2019-05-17T06:28:27.275Z,11.50
2019-05-17T06:30:56.587Z,11.50
2019-05-17T06:33:30.838Z,11.60
2019-05-17T06:35:56.911Z,11.60
2019-05-17T06:38:26.219Z,11.70
2019-05-17T06:40:55.539Z,11.70
2019-05-17T06:43:24.856Z,11.70
2019-05-17T06:45:54.173Z,11.70
2019-05-17T06:48:23.498Z,11.70
2019-05-17T06:50:52.800Z,11.70
2019-05-17T06:53:22.162Z,11.70
2019-05-17T06:55:53.419Z,11.90
2019-05-17T06:58:22.881Z,12.00
2019-05-17T07:00:52.185Z,12.10
2019-05-17T07:03:22.509Z,12.20
2019-05-17T07:05:59.681Z,12.30
2019-05-17T07:08:29.566Z,12.40
2019-05-17T07:10:59.780Z,12.50
2019-05-17T07:13:30.112Z,12.60
2019-05-17T07:15:59.864Z,12.70
2019-05-17T07:18:30.027Z,13.60
2019-05-17T07:21:02.890Z,12.90
2019-05-17T07:23:31.728Z,13.00
2019-05-17T07:26:01.049Z,13.20
2019-05-17T07:28:30.428Z,13.30
2019-05-17T07:30:59.891Z,13.20
2019-05-17T07:33:30.553Z,13.20
2019-05-17T07:36:00.028Z,13.30
2019-05-17T07:38:30.202Z,13.40
2019-05-17T07:40:59.827Z,13.70
2019-05-17T07:43:30.500Z,13.70
2019-05-17T07:46:00.486Z,14.30
2019-05-17T07:48:31.623Z,14.40
2019-05-17T07:51:01.025Z,14.50
2019-05-17T07:53:30.821Z,14.80
2019-05-17T07:56:01.161Z,15.10
2019-05-17T07:58:30.476Z,15.60
2019-05-17T08:01:02.189Z,15.90
2019-05-17T08:03:30.890Z,15.90
2019-05-17T08:06:00.255Z,16.20
2019-05-17T08:08:30.928Z,16.60
2019-05-17T08:11:00.774Z,16.90
2019-05-17T08:13:33.469Z,16.40
2019-05-17T08:16:02.138Z,16.10
2019-05-17T08:18:31.456Z,17.40
2019-05-17T08:21:00.783Z,19.50
2019-05-17T08:23:30.534Z,23.00
2019-05-17T08:26:00.862Z,25.80
2019-05-17T08:28:31.234Z,25.10
2019-05-17T08:31:01.772Z,26.60
2019-05-17T08:33:31.352Z,28.00
2019-05-17T08:36:01.331Z,27.00
2019-05-17T08:38:30.780Z,28.40
2019-05-17T08:41:00.806Z,27.30
2019-05-17T08:43:41.802Z,28.00
2019-05-17T08:46:02.514Z,28.40
2019-05-17T08:48:32.216Z,28.20
2019-05-17T08:51:01.603Z,27.80
2019-05-17T08:53:30.978Z,27.50
2019-05-17T08:56:01.031Z,28.20
2019-05-17T08:58:30.754Z,29.60
2019-05-17T09:01:00.490Z,29.90
2019-05-17T09:03:30.925Z,28.20
2019-05-17T09:06:02.309Z,26.50
2019-05-17T09:08:32.208Z,26.80
2019-05-17T09:11:01.639Z,24.00
2019-05-17T09:13:31.015Z,23.80
2019-05-17T09:16:00.591Z,24.10
2019-05-17T09:18:30.286Z,23.90
2019-05-17T09:21:00.300Z,23.20
2019-05-17T09:23:31.073Z,22.80
2019-05-17T09:26:00.410Z,20.90
2019-05-17T09:28:30.787Z,20.00
2019-05-17T09:31:01.115Z,19.30
2019-05-17T09:33:30.667Z,18.60
2019-05-17T09:36:01.007Z,18.20
2019-05-17T09:38:31.489Z,17.70
2019-05-17T09:41:00.800Z,17.70
2019-05-17T09:43:30.248Z,17.50
2019-05-17T09:46:01.653Z,17.40
2019-05-17T09:48:30.979Z,17.30
2019-05-17T09:51:00.550Z,17.60
2019-05-17T09:53:30.796Z,17.90
2019-05-17T09:56:00.733Z,18.30
2019-05-17T09:58:30.154Z,18.30
2019-05-17T10:01:01.430Z,17.90
2019-05-17T10:03:30.996Z,17.50
2019-05-17T10:06:00.334Z,17.40
2019-05-17T10:08:29.743Z,17.30
2019-05-17T10:11:08.463Z,17.40
2019-05-17T10:13:30.775Z,17.30
2019-05-17T10:16:00.539Z,17.50
2019-05-17T10:18:30.937Z,17.50
2019-05-17T10:21:00.243Z,17.30
2019-05-17T10:23:30.042Z,17.30
2019-05-17T10:25:59.666Z,17.50
2019-05-17T10:28:29.653Z,17.80
2019-05-17T10:31:02.170Z,17.80
2019-05-17T10:33:29.964Z,17.50
2019-05-17T10:36:00.439Z,17.30
2019-05-17T10:38:30.103Z,17.30
2019-05-17T10:40:59.488Z,17.60
2019-05-17T10:43:29.890Z,17.60
2019-05-17T10:45:59.851Z,17.40
2019-05-17T10:48:30.289Z,17.70
2019-05-17T10:51:00.383Z,18.20
2019-05-17T10:53:29.944Z,18.60
2019-05-17T10:56:00.664Z,18.00
2019-05-17T10:58:30.262Z,18.30
2019-05-17T11:01:00.888Z,18.30
2019-05-17T11:03:30.543Z,18.10
2019-05-17T11:06:00.003Z,17.70
2019-05-17T11:08:29.330Z,17.20
2019-05-17T11:10:59.569Z,17.30
2019-05-17T11:13:29.096Z,17.30
2019-05-17T11:15:58.404Z,17.40
2019-05-17T11:18:27.715Z,17.40
2019-05-17T11:20:57.020Z,17.60
2019-05-17T11:23:28.140Z,17.60
2019-05-17T11:25:57.516Z,17.50
2019-05-17T11:28:26.824Z,17.60
2019-05-17T11:30:56.225Z,17.70
2019-05-17T11:33:25.512Z,17.70
2019-05-17T11:35:54.843Z,17.80
2019-05-17T11:38:24.196Z,18.00
2019-05-17T11:40:53.515Z,18.10
2019-05-17T11:43:22.808Z,17.80
2019-05-17T11:45:52.116Z,17.80
2019-05-17T11:48:22.392Z,17.80
2019-05-17T11:50:55.139Z,17.70
2019-05-17T11:53:24.691Z,17.70
2019-05-17T11:55:54.086Z,17.80
2019-05-17T11:58:23.385Z,17.70
2019-05-17T12:00:52.690Z,17.70
2019-05-17T12:03:21.989Z,17.50
2019-05-17T12:05:51.436Z,17.60
2019-05-17T12:08:20.754Z,17.60
2019-05-17T12:10:50.194Z,17.40
2019-05-17T12:13:19.644Z,17.30
2019-05-17T12:15:49.932Z,17.30
2019-05-17T12:18:19.235Z,17.30
2019-05-17T12:20:48.548Z,17.40
2019-05-17T12:23:18.024Z,17.50
2019-05-17T12:25:47.344Z,17.60
2019-05-17T12:28:16.651Z,17.40
2019-05-17T12:30:46.031Z,17.40
2019-05-17T12:33:15.897Z,17.30
2019-05-17T12:35:45.300Z,17.40
2019-05-17T12:38:14.672Z,17.50
2019-05-17T12:40:43.980Z,17.70
2019-05-17T12:43:13.276Z,18.00
2019-05-17T12:45:42.578Z,18.30
2019-05-17T12:48:11.902Z,18.50
2019-05-17T12:50:41.269Z,18.50
2019-05-17T12:53:10.572Z,18.40
2019-05-17T12:55:39.878Z,18.50
2019-05-17T12:58:09.179Z,18.20
2019-05-17T13:00:38.487Z,17.80
2019-05-17T13:03:07.798Z,17.70
2019-05-17T13:05:37.100Z,17.70
2019-05-17T13:08:06.559Z,17.60
2019-05-17T13:10:35.864Z,17.60
2019-05-17T13:13:05.167Z,17.80
2019-05-17T13:15:34.542Z,17.90
2019-05-17T13:18:03.839Z,17.90
2019-05-17T13:20:33.142Z,18.10
2019-05-17T13:23:03.131Z,18.10
2019-05-17T13:25:32.731Z,18.40
2019-05-17T13:28:02.152Z,18.40
2019-05-17T13:30:31.519Z,18.30
2019-05-17T13:33:00.850Z,18.10
2019-05-17T13:35:30.493Z,18.10
2019-05-17T13:37:59.787Z,18.20
2019-05-17T13:40:29.232Z,18.20
2019-05-17T13:42:58.586Z,18.20
2019-05-17T13:45:27.887Z,18.20
2019-05-17T13:47:57.200Z,18.20
2019-05-17T13:50:26.507Z,18.10
2019-05-17T13:52:56.391Z,18.30
2019-05-17T13:55:25.764Z,18.30
2019-05-17T13:57:55.073Z,18.30
2019-05-17T14:00:24.714Z,18.50
2019-05-17T14:02:54.018Z,18.60
2019-05-17T14:05:23.328Z,18.40
2019-05-17T14:07:52.640Z,18.30
2019-05-17T14:10:27.652Z,18.30
2019-05-17T14:12:53.822Z,18.40
2019-05-17T14:15:23.130Z,18.40
2019-05-17T14:17:52.443Z,18.50
2019-05-17T14:20:21.823Z,18.60
2019-05-17T14:22:51.264Z,18.90
2019-05-17T14:25:21.603Z,18.90
2019-05-17T14:27:50.903Z,19.00
2019-05-17T14:30:20.355Z,19.00
2019-05-17T14:32:49.648Z,19.20
2019-05-17T14:35:18.957Z,19.30
2019-05-17T14:37:49.132Z,19.00
2019-05-17T14:40:18.568Z,18.80
2019-05-17T14:42:47.876Z,18.60
2019-05-17T14:45:17.248Z,18.60
2019-05-17T14:47:46.556Z,18.60
2019-05-17T14:50:16.004Z,18.80
2019-05-17T14:52:45.318Z,18.80
2019-05-17T14:55:14.701Z,19.00
2019-05-17T14:57:44.013Z,18.80
2019-05-17T15:00:13.457Z,18.70
2019-05-17T15:02:42.832Z,18.60
2019-05-17T15:05:12.272Z,18.80
2019-05-17T15:07:41.581Z,19.10
2019-05-17T15:10:11.191Z,19.30
2019-05-17T15:12:41.528Z,19.40
2019-05-17T15:15:11.773Z,19.40
2019-05-17T15:17:41.081Z,19.50
2019-05-17T15:20:10.628Z,19.50
2019-05-17T15:22:39.939Z,19.50
2019-05-17T15:25:09.598Z,19.60
2019-05-17T15:27:38.905Z,19.50
2019-05-17T15:30:09.927Z,19.40
2019-05-17T15:32:39.235Z,19.50
2019-05-17T15:35:08.709Z,19.40
2019-05-17T15:37:39.079Z,19.50
2019-05-17T15:40:08.695Z,19.60
2019-05-17T15:42:44.340Z,19.60
2019-05-17T15:45:09.365Z,19.30
2019-05-17T15:47:38.794Z,19.30
2019-05-17T15:50:08.747Z,19.20
2019-05-17T15:52:38.041Z,19.30
2019-05-17T15:55:08.583Z,19.40
2019-05-17T15:57:38.095Z,19.50
2019-05-17T16:00:07.964Z,19.60
2019-05-17T16:02:37.329Z,20.10
2019-05-17T16:05:06.964Z,19.50
2019-05-17T16:07:36.271Z,19.60
2019-05-17T16:10:09.681Z,19.60
2019-05-17T16:12:39.067Z,19.60
2019-05-17T16:15:09.108Z,19.70
2019-05-17T16:17:38.479Z,19.90
2019-05-17T16:20:07.956Z,19.80
2019-05-17T16:22:38.066Z,19.90
2019-05-17T16:25:08.587Z,19.90
2019-05-17T16:27:37.887Z,19.80
2019-05-17T16:30:07.958Z,19.80
2019-05-17T16:32:37.313Z,19.90
2019-05-17T16:35:07.631Z,19.80
2019-05-17T16:37:36.928Z,19.80
2019-05-17T16:40:06.598Z,19.80
2019-05-17T16:42:36.273Z,19.80
2019-05-17T16:45:08.388Z,19.70
2019-05-17T16:47:37.684Z,19.80
2019-05-17T16:50:07.624Z,19.90
2019-05-17T16:52:37.012Z,19.70
2019-05-17T16:55:06.764Z,19.50
2019-05-17T16:57:36.131Z,19.40
2019-05-17T17:00:14.440Z,19.40
2019-05-17T17:02:43.748Z,19.50
2019-05-17T17:05:13.117Z,19.50
2019-05-17T17:07:42.434Z,19.60
2019-05-17T17:10:11.787Z,19.50
2019-05-17T17:12:41.119Z,19.40
2019-05-17T17:15:10.759Z,19.40
2019-05-17T17:17:40.064Z,19.30
2019-05-17T17:20:09.907Z,19.30
2019-05-17T17:22:39.222Z,19.30
2019-05-17T17:25:09.071Z,19.20
2019-05-17T17:27:38.444Z,19.10
2019-05-17T17:30:09.692Z,19.00
2019-05-17T17:32:38.999Z,19.00
2019-05-17T17:35:08.548Z,19.10
2019-05-17T17:37:37.928Z,19.10
2019-05-17T17:40:08.264Z,19.10
2019-05-17T17:42:38.849Z,19.00
2019-05-17T17:45:10.062Z,19.00
2019-05-17T17:47:39.372Z,19.00
2019-05-17T17:50:08.815Z,18.90
2019-05-17T17:52:38.133Z,18.90
2019-05-17T17:55:07.565Z,18.90
2019-05-17T17:57:36.868Z,18.90
2019-05-17T18:00:06.979Z,18.80
2019-05-17T18:02:37.564Z,18.80
2019-05-17T18:05:07.005Z,18.70
2019-05-17T18:07:36.313Z,18.70
2019-05-17T18:10:07.923Z,18.70
2019-05-17T18:12:37.235Z,18.60
2019-05-17T18:15:09.373Z,18.60
2019-05-17T18:17:39.635Z,18.60
2019-05-17T18:20:09.284Z,18.60
2019-05-17T18:22:38.585Z,18.70
2019-05-17T18:25:07.891Z,18.60
2019-05-17T18:27:37.191Z,18.60
2019-05-17T18:30:06.933Z,18.60
2019-05-17T18:32:36.390Z,18.50
2019-05-17T18:35:07.503Z,18.40
2019-05-17T18:37:36.800Z,18.40
2019-05-17T18:40:06.739Z,18.30
2019-05-17T18:42:36.048Z,18.30
2019-05-17T18:45:07.572Z,18.30
2019-05-17T18:47:36.947Z,18.20
2019-05-17T18:50:06.696Z,18.20
2019-05-17T18:52:36.001Z,18.10
2019-05-17T18:55:09.051Z,18.10
2019-05-17T18:57:38.444Z,18.10
2019-05-17T19:00:08.748Z,18.10
2019-05-17T19:02:38.050Z,17.90
2019-05-17T19:05:07.888Z,17.90
2019-05-17T19:07:37.222Z,17.90
2019-05-17T19:10:10.571Z,17.80
2019-05-17T19:12:39.943Z,17.80
2019-05-17T19:15:09.584Z,17.80
2019-05-17T19:17:39.156Z,17.80
2019-05-17T19:20:09.008Z,17.70
2019-05-17T19:22:41.295Z,17.70
2019-05-17T19:25:11.239Z,17.60
2019-05-17T19:27:40.543Z,17.60
2019-05-17T19:30:11.627Z,17.70
2019-05-17T19:32:41.024Z,17.60
2019-05-17T19:35:10.473Z,17.60
2019-05-17T19:37:39.784Z,17.50
2019-05-17T19:40:09.328Z,17.50
2019-05-17T19:42:38.638Z,17.50
2019-05-17T19:45:09.418Z,17.40
2019-05-17T19:47:38.719Z,17.30
2019-05-17T19:50:08.659Z,17.20
2019-05-17T19:52:37.967Z,17.10
2019-05-17T19:55:07.812Z,17.10
2019-05-17T19:57:37.284Z,17.00
2019-05-17T20:00:09.304Z,17.00
2019-05-17T20:02:38.775Z,16.90
2019-05-17T20:05:08.415Z,16.90
2019-05-17T20:07:39.368Z,16.80
2019-05-17T20:10:09.411Z,16.80
2019-05-17T20:12:38.727Z,16.70
2019-05-17T20:15:17.414Z,16.70
2019-05-17T20:17:41.043Z,16.80
2019-05-17T20:20:11.643Z,16.60
2019-05-17T20:22:41.033Z,16.60
2019-05-17T20:25:10.476Z,16.50
2019-05-17T20:27:39.791Z,16.50
2019-05-17T20:30:09.941Z,16.50
2019-05-17T20:32:39.256Z,16.50
2019-05-17T20:35:08.997Z,16.50
2019-05-17T20:37:38.659Z,16.50
2019-05-17T20:40:08.499Z,16.50
2019-05-17T20:42:37.811Z,16.40
2019-05-17T20:45:08.360Z,16.40
2019-05-17T20:47:37.924Z,16.30
2019-05-17T20:50:08.963Z,16.20
2019-05-17T20:52:39.340Z,16.20
2019-05-17T20:55:08.984Z,16.10
2019-05-17T20:57:38.296Z,16.20
2019-05-17T21:00:08.636Z,16.10
2019-05-17T21:02:37.948Z,16.00
2019-05-17T21:05:08.094Z,15.90
2019-05-17T21:07:37.393Z,15.90
2019-05-17T21:10:07.041Z,16.00
2019-05-17T21:12:36.338Z,15.90
2019-05-17T21:15:06.975Z,15.90
2019-05-17T21:17:36.284Z,15.80
2019-05-17T21:20:08.923Z,15.80
2019-05-17T21:22:38.234Z,15.90
2019-05-17T21:25:07.669Z,15.90
2019-05-17T21:27:37.039Z,15.90
2019-05-17T21:30:06.779Z,15.90
2019-05-17T21:32:36.186Z,15.80
2019-05-17T21:35:06.597Z,15.70
2019-05-17T21:37:35.968Z,15.60
2019-05-17T21:40:08.656Z,15.50
2019-05-17T21:42:37.955Z,15.50
2019-05-17T21:45:07.799Z,15.40
2019-05-17T21:47:37.121Z,15.40
2019-05-17T21:50:07.869Z,15.30
2019-05-17T21:52:37.160Z,15.20
2019-05-17T21:55:06.720Z,15.10
2019-05-17T21:57:36.032Z,15.00
2019-05-17T22:00:11.224Z,14.90
2019-05-17T22:02:42.315Z,15.00
2019-05-17T22:05:11.703Z,15.00
2019-05-17T22:07:40.996Z,14.90
2019-05-17T22:10:10.447Z,14.80
2019-05-17T22:12:39.743Z,14.70
2019-05-17T22:15:09.120Z,14.70
2019-05-17T22:17:38.518Z,14.60
2019-05-17T22:20:07.952Z,14.60
2019-05-17T22:22:37.252Z,14.60
2019-05-17T22:25:07.663Z,14.60
2019-05-17T22:27:37.012Z,14.50
2019-05-17T22:30:07.581Z,14.40
2019-05-17T22:32:37.008Z,14.20
2019-05-17T22:35:07.249Z,14.00
2019-05-17T22:37:36.555Z,14.00
2019-05-17T22:40:07.304Z,14.10
2019-05-17T22:42:39.356Z,14.20
2019-05-17T22:45:07.948Z,14.30
2019-05-17T22:47:37.251Z,14.30
2019-05-17T22:50:06.695Z,14.30
2019-05-17T22:52:36.040Z,14.10
2019-05-17T22:55:06.375Z,14.10
2019-05-17T22:57:35.751Z,14.00
2019-05-17T23:00:10.371Z,14.00
2019-05-17T23:02:41.295Z,13.90
2019-05-17T23:05:10.754Z,13.90
2019-05-17T23:07:40.051Z,14.00
2019-05-17T23:10:10.231Z,13.90
2019-05-17T23:12:39.568Z,13.90
2019-05-17T23:15:09.359Z,13.80
2019-05-17T23:17:38.663Z,13.80
2019-05-17T23:20:09.014Z,13.80
2019-05-17T23:22:38.322Z,13.70
2019-05-17T23:25:07.766Z,13.80
2019-05-17T23:27:37.079Z,13.70
2019-05-17T23:30:08.025Z,13.60
2019-05-17T23:32:37.354Z,13.50
2019-05-17T23:35:07.155Z,13.40
2019-05-17T23:37:36.463Z,13.40
2019-05-17T23:40:06.537Z,13.30
2019-05-17T23:42:35.848Z,13.50
2019-05-17T23:45:09.927Z,13.70
2019-05-17T23:47:39.225Z,13.70
2019-05-17T23:50:09.068Z,13.60
2019-05-17T23:52:38.672Z,13.60
2019-05-17T23:55:08.636Z,13.70
2019-05-17T23:57:37.939Z,13.70
